Pagrindinis puslapis
METAR-TAF:

METAR-TAF

Oro uostai :

Noršiopingas, Švedija

platuma: 58-35N, ilguma: 016-09E, Aukštis: 34 m

Dabartinis oras

Ataskaita buvo paskelbta 26 minutes, ne 06:50 UTC
Vėjas 5 kt iš Rytų
Temperatūra 15°C
Drėgmė 94%
Slėgis 1019 hPa
Matomumas 10 km arba daugiau
Su prošvaistėmis ne aukštis 600 ft

METAR: ESSP 240650Z 08005KT 9999 BKN006 15/14 Q1019

Laikas: 09:16 (07:16 UTC)

Prognozė

Ataskaita buvo paskelbta 1 valandą ir 46 minutes, ne 05:30 UTC
Prognozė galioja nuo 24 metu 06 UTC su 24 metu 15 UTC
Vėjas 9 kt iš Rytų
Matomumas 10 km arba daugiau
Išsisklaidę debesys ne aukštis 500 ft
Su prošvaistėmis ne aukštis 1000 ft
Laikinai
nuo 24 metu 06 UTC su 24 metu 10 UTC
Su prošvaistėmis ne aukštis 500 ft
Tapsmas
nuo 24 metu 10 UTC su 24 metu 12 UTC
Su prošvaistėmis ne aukštis 1800 ft

TAF: ESSP 240530Z 2406/2415 10009KT 9999 SCT005 BKN010 TEMPO 2406/2410 BKN005 BECMG 2410/2412 BKN018

Orai ataskaitas ir orų prognozės (METAR, TAF).

turimą stotys yra geltonos ir raudonos taškus žemėlapyje.

Perkelti pele per norėdami pamatyti stoties vardą.

Tada spustelėkite, norėdami matyti oro stebėjimo ir prognozės.

Norėdami pakeisti žemėlapį: spustelėkite ant žalios mygtukų su juodo kryžiaus žemyn,; žalią mygtuką su brūkšneliu, jei norite nutolinti; arba žalių rodyklių gretimoms žemėlapius.


METAR-TAF: